Lomas de Country Club, Puerto Rico
Current Conditions -  °F | °C
As of 8:50 PM on Wednesday 17 Dec 2014 (Local Time) from TJBQ Reporting Station
Broken Clouds Broken Clouds  
Wind Chill: 24°   Ceiling: 4300
Heat Index: 24°   Visibility: 10mi
Dew Point: 19°   Wind: 13mph
Humidity: 73%   Direction: 70°ENE
Pressure: 30.07"   Gusts: NA
Location:  18.0152°N, 66.6246°W
Report Text: TJBQ 180050Z 07011KT 10SM SCT028 SCT036 BKN043 24/19 A3007 RMK RWY08 ATIS L
Loading
Personal Weather Stations






























Interactive Weather Map New forecast layout! Learn more

10-Day Weather Forecast

Advertisements
Track Severe Weather on mobile